createdAt,value
2024-03-05T00:01:25.659Z,6.37
2024-03-05T00:03:53.209Z,6.39
2024-03-05T00:06:22.161Z,6.32
2024-03-05T00:08:49.281Z,6.29
2024-03-05T00:11:16.353Z,6.27
2024-03-05T00:13:45.271Z,6.25
2024-03-05T00:16:12.984Z,6.22
2024-03-05T00:18:40.411Z,6.19
2024-03-05T00:21:08.465Z,6.17
2024-03-05T00:23:37.348Z,6.14
2024-03-05T00:26:05.137Z,6.15
2024-03-05T00:28:32.320Z,6.13
2024-03-05T00:30:59.525Z,6.10
2024-03-05T00:33:26.834Z,6.08
2024-03-05T00:35:55.792Z,6.02
2024-03-05T00:38:28.959Z,6.00
2024-03-05T00:41:02.407Z,5.99
2024-03-05T00:43:29.756Z,5.96
2024-03-05T00:45:57.075Z,5.95
2024-03-05T00:48:24.410Z,5.94
2024-03-05T00:50:51.633Z,5.89
2024-03-05T00:53:19.264Z,5.87
2024-03-05T00:55:46.362Z,5.84
2024-03-05T00:58:15.344Z,5.84
2024-03-05T01:00:43.184Z,5.85
2024-03-05T01:03:10.499Z,5.79
2024-03-05T01:05:37.625Z,5.80
2024-03-05T01:08:05.831Z,5.79
2024-03-05T01:10:32.978Z,5.74
2024-03-05T01:13:00.613Z,5.74
2024-03-05T01:15:29.573Z,5.73
2024-03-05T01:17:57.175Z,5.72
2024-03-05T01:20:24.429Z,5.72
2024-03-05T01:22:51.717Z,5.71
2024-03-05T01:25:19.294Z,5.69
2024-03-05T01:27:46.653Z,5.67
2024-03-05T01:30:13.935Z,5.63
2024-03-05T01:32:43.273Z,5.59
2024-03-05T01:35:11.071Z,5.57
2024-03-05T01:37:38.684Z,5.57
2024-03-05T01:40:07.511Z,5.56
2024-03-05T01:42:34.875Z,5.55
2024-03-05T01:45:02.361Z,5.55
2024-03-05T01:47:31.204Z,5.57
2024-03-05T01:50:02.753Z,5.56
2024-03-05T01:52:30.131Z,5.56
2024-03-05T01:55:01.649Z,5.52
2024-03-05T01:57:29.515Z,5.50
2024-03-05T01:59:56.810Z,5.49
2024-03-05T02:02:24.639Z,5.44
2024-03-05T02:04:54.087Z,5.42
2024-03-05T02:07:25.074Z,5.39
2024-03-05T02:09:53.222Z,5.38
2024-03-05T02:12:21.925Z,5.37
2024-03-05T02:14:49.796Z,5.36
2024-03-05T02:17:17.685Z,5.31
2024-03-05T02:19:48.234Z,5.28
2024-03-05T02:22:17.240Z,5.25
2024-03-05T02:24:45.281Z,5.20
2024-03-05T02:27:17.394Z,5.21
2024-03-05T02:29:47.764Z,5.19
2024-03-05T02:32:15.586Z,5.20
2024-03-05T02:34:42.695Z,5.22
2024-03-05T02:37:11.802Z,5.24
2024-03-05T02:39:40.563Z,5.22
2024-03-05T02:42:07.667Z,5.17
2024-03-05T02:44:34.985Z,5.15
2024-03-05T02:47:02.087Z,5.14
2024-03-05T02:49:29.417Z,5.09
2024-03-05T02:51:56.492Z,5.08
2024-03-05T02:54:23.629Z,5.09
2024-03-05T02:56:53.418Z,5.13
2024-03-05T02:59:20.801Z,5.12
2024-03-05T03:01:48.229Z,5.15
2024-03-05T03:04:15.632Z,5.15
2024-03-05T03:06:43.194Z,5.13
2024-03-05T03:09:10.884Z,5.12
2024-03-05T03:11:38.168Z,5.09
2024-03-05T03:14:06.824Z,5.06
2024-03-05T03:16:34.165Z,5.00
2024-03-05T03:19:01.470Z,4.98
2024-03-05T03:21:28.504Z,4.94
2024-03-05T03:23:55.836Z,4.91
2024-03-05T03:26:23.103Z,4.88
2024-03-05T03:28:50.544Z,4.82
2024-03-05T03:31:19.441Z,4.79
2024-03-05T03:33:46.754Z,4.77
2024-03-05T03:36:23.273Z,4.72
2024-03-05T03:38:50.708Z,4.71
2024-03-05T03:41:18.251Z,4.64
2024-03-05T03:43:45.559Z,4.56
2024-03-05T03:46:12.632Z,4.55
2024-03-05T03:48:41.508Z,4.53
2024-03-05T03:51:08.805Z,4.50
2024-03-05T03:53:36.449Z,4.44
2024-03-05T03:56:04.351Z,4.39
2024-03-05T03:58:31.708Z,4.32
2024-03-05T04:00:59.321Z,4.31
2024-03-05T04:03:27.164Z,4.29
2024-03-05T04:05:56.588Z,4.28
2024-03-05T04:08:23.703Z,4.25
2024-03-05T04:10:51.129Z,4.23
2024-03-05T04:13:18.934Z,4.19
2024-03-05T04:15:46.599Z,4.18
2024-03-05T04:18:13.836Z,4.17
2024-03-05T04:20:41.192Z,4.16
2024-03-05T04:23:10.044Z,4.15
2024-03-05T04:25:37.396Z,4.05
2024-03-05T04:28:05.371Z,4.01
2024-03-05T04:30:32.484Z,3.95
2024-03-05T04:33:00.405Z,3.91
2024-03-05T04:35:27.954Z,3.92
2024-03-05T04:37:55.107Z,3.91
2024-03-05T04:40:24.188Z,3.94
2024-03-05T04:42:51.752Z,3.97
2024-03-05T04:45:19.477Z,3.98
2024-03-05T04:47:47.215Z,4.01
2024-03-05T04:50:15.074Z,4.03
2024-03-05T04:52:42.498Z,4.08
2024-03-05T04:55:09.884Z,4.12
2024-03-05T04:57:41.616Z,4.10
2024-03-05T05:00:10.435Z,4.11
2024-03-05T05:02:37.974Z,4.08
2024-03-05T05:05:06.127Z,4.07
2024-03-05T05:07:33.474Z,4.08
2024-03-05T05:10:00.789Z,4.09
2024-03-05T05:12:27.876Z,4.09
2024-03-05T05:14:57.405Z,4.11
2024-03-05T05:17:24.913Z,4.15
2024-03-05T05:19:52.692Z,4.14
2024-03-05T05:22:20.066Z,4.16
2024-03-05T05:24:47.292Z,4.13
2024-03-05T05:27:14.659Z,4.12
2024-03-05T05:29:42.900Z,4.10
2024-03-05T05:32:12.066Z,4.07
2024-03-05T05:34:39.751Z,4.10
2024-03-05T05:37:07.076Z,4.13
2024-03-05T05:39:34.381Z,4.16
2024-03-05T05:42:02.015Z,4.18
2024-03-05T05:44:29.213Z,4.21
2024-03-05T05:46:57.087Z,4.25
2024-03-05T05:49:25.850Z,4.30
2024-03-05T05:51:53.571Z,4.35
2024-03-05T05:54:23.047Z,4.38
2024-03-05T05:56:50.862Z,4.42
2024-03-05T05:59:21.319Z,4.48
2024-03-05T06:01:49.415Z,4.54
2024-03-05T06:04:17.449Z,4.57
2024-03-05T06:06:47.278Z,4.60
2024-03-05T06:09:14.419Z,4.67
2024-03-05T06:11:42.116Z,4.67
2024-03-05T06:14:09.921Z,4.73
2024-03-05T06:16:37.622Z,4.78
2024-03-05T06:19:04.740Z,4.82
2024-03-05T06:21:32.447Z,4.85
2024-03-05T06:24:01.749Z,4.96
2024-03-05T06:26:29.513Z,5.08
2024-03-05T06:28:56.912Z,5.23
2024-03-05T06:31:25.384Z,5.35
2024-03-05T06:33:53.912Z,5.52
2024-03-05T06:36:22.363Z,5.71
2024-03-05T06:38:50.125Z,5.98
2024-03-05T06:41:20.157Z,6.19
2024-03-05T06:43:47.865Z,6.36
2024-03-05T06:46:15.957Z,6.53
2024-03-05T06:48:43.941Z,6.69
2024-03-05T06:51:11.330Z,6.85
2024-03-05T06:53:38.940Z,7.06
2024-03-05T06:56:06.553Z,7.18
2024-03-05T06:58:36.441Z,7.25
2024-03-05T07:01:04.076Z,7.30
2024-03-05T07:03:32.020Z,7.34
2024-03-05T07:05:59.264Z,7.41
2024-03-05T07:08:28.836Z,7.47
2024-03-05T07:10:56.722Z,7.53
2024-03-05T07:13:23.875Z,7.62
2024-03-05T07:15:53.900Z,7.69
2024-03-05T07:18:21.905Z,7.81
2024-03-05T07:20:49.749Z,7.90
2024-03-05T07:23:17.676Z,7.98
2024-03-05T07:25:45.298Z,8.06
2024-03-05T07:28:13.176Z,8.11
2024-03-05T07:30:40.476Z,8.14
2024-03-05T07:33:10.241Z,8.13
2024-03-05T07:35:37.909Z,8.18
2024-03-05T07:38:06.517Z,8.23
2024-03-05T07:40:34.241Z,8.30
2024-03-05T07:43:02.519Z,8.37
2024-03-05T07:45:30.100Z,8.49
2024-03-05T07:47:57.854Z,8.60
2024-03-05T07:50:26.736Z,8.70
2024-03-05T07:52:54.253Z,8.81
2024-03-05T07:55:28.991Z,8.85
2024-03-05T07:57:59.296Z,8.96
2024-03-05T08:00:26.865Z,9.13
2024-03-05T08:02:54.552Z,9.38
2024-03-05T08:05:22.592Z,9.63
2024-03-05T08:07:52.810Z,9.99
2024-03-05T08:10:21.793Z,10.34
2024-03-05T08:12:52.146Z,10.76
2024-03-05T08:15:19.974Z,11.16
2024-03-05T08:17:49.032Z,11.57
2024-03-05T08:20:17.905Z,11.95
2024-03-05T08:22:46.297Z,12.27
2024-03-05T08:25:16.056Z,12.52
2024-03-05T08:27:48.452Z,12.68
2024-03-05T08:30:17.881Z,12.73
2024-03-05T08:32:45.509Z,12.62
2024-03-05T08:35:13.484Z,12.60
2024-03-05T08:37:41.623Z,12.53
2024-03-05T08:40:10.904Z,12.54
2024-03-05T08:42:40.731Z,12.53
2024-03-05T08:45:09.498Z,12.55
2024-03-05T08:47:37.113Z,12.63
2024-03-05T08:50:04.926Z,12.67
2024-03-05T08:52:32.750Z,12.68
2024-03-05T08:55:00.441Z,12.54
2024-03-05T08:57:27.646Z,12.45
2024-03-05T08:59:56.807Z,12.46
2024-03-05T09:02:24.633Z,12.46
2024-03-05T09:04:52.740Z,12.52
2024-03-05T09:07:20.574Z,12.47
2024-03-05T09:09:48.069Z,12.45
2024-03-05T09:12:16.195Z,12.42
2024-03-05T09:14:44.251Z,12.36
2024-03-05T09:17:13.701Z,12.46
2024-03-05T09:19:41.125Z,12.52
2024-03-05T09:22:08.960Z,12.60
2024-03-05T09:24:39.025Z,12.66
2024-03-05T09:27:06.704Z,12.67
2024-03-05T09:29:34.383Z,12.70
2024-03-05T09:32:02.150Z,12.80
2024-03-05T09:34:31.033Z,12.82
2024-03-05T09:36:58.541Z,12.93
2024-03-05T09:39:26.384Z,13.05
2024-03-05T09:41:55.344Z,13.07
2024-03-05T09:44:22.979Z,13.09
2024-03-05T09:46:50.934Z,13.04
2024-03-05T09:49:23.075Z,13.08
2024-03-05T09:51:52.684Z,13.19
2024-03-05T09:54:20.292Z,13.23
2024-03-05T09:56:47.672Z,13.41
2024-03-05T09:59:15.751Z,13.73
2024-03-05T10:01:43.414Z,14.02
2024-03-05T10:04:13.813Z,14.10
2024-03-05T10:06:41.034Z,14.12
2024-03-05T10:09:10.870Z,14.18
2024-03-05T10:11:38.673Z,14.11
2024-03-05T10:14:06.425Z,14.06
2024-03-05T10:16:34.017Z,13.97
2024-03-05T10:19:12.207Z,13.94
2024-03-05T10:21:40.261Z,13.88
2024-03-05T10:24:11.092Z,13.92
2024-03-05T10:26:40.307Z,13.97
2024-03-05T10:29:09.793Z,14.04
2024-03-05T10:31:38.711Z,14.09
2024-03-05T10:34:06.944Z,14.28
2024-03-05T10:36:36.218Z,14.55
2024-03-05T10:39:04.737Z,14.82
2024-03-05T10:41:43.089Z,15.03
2024-03-05T10:44:16.917Z,15.18
2024-03-05T10:46:45.726Z,15.35
2024-03-05T10:49:13.448Z,15.39
2024-03-05T10:51:42.555Z,15.48
2024-03-05T10:54:10.127Z,15.55
2024-03-05T10:56:44.502Z,15.56
2024-03-05T10:59:13.133Z,15.61
2024-03-05T11:01:41.850Z,15.54
2024-03-05T11:04:15.437Z,15.59
2024-03-05T11:06:43.424Z,15.55
2024-03-05T11:09:11.558Z,15.29
2024-03-05T11:11:44.093Z,15.13
2024-03-05T11:14:13.056Z,15.11
2024-03-05T11:16:40.351Z,15.21
2024-03-05T11:19:09.644Z,15.29
2024-03-05T11:21:39.755Z,15.36
2024-03-05T11:24:07.870Z,15.64
2024-03-05T11:26:36.479Z,16.38
2024-03-05T11:29:35.233Z,17.37
2024-03-05T11:32:05.026Z,18.74
2024-03-05T11:34:33.064Z,19.15
2024-03-05T11:37:07.619Z,19.10
2024-03-05T11:39:35.536Z,19.02
2024-03-05T11:42:04.285Z,19.21
2024-03-05T11:44:57.688Z,20.11
2024-03-05T11:47:25.876Z,20.86
2024-03-05T11:49:53.120Z,21.13
2024-03-05T11:52:20.390Z,20.84
2024-03-05T11:55:02.796Z,20.33
2024-03-05T11:57:30.280Z,19.70
2024-03-05T12:00:01.356Z,19.07
2024-03-05T12:02:29.184Z,18.76
2024-03-05T12:05:04.737Z,18.37
2024-03-05T12:07:32.045Z,17.69
2024-03-05T12:09:59.402Z,17.16
2024-03-05T12:12:26.570Z,17.00
2024-03-05T12:14:55.323Z,16.86
2024-03-05T12:17:26.365Z,16.64
2024-03-05T12:19:58.299Z,16.40
2024-03-05T12:22:26.195Z,16.30
2024-03-05T12:24:53.561Z,16.24
2024-03-05T12:27:20.663Z,16.15
2024-03-05T12:29:48.454Z,16.08
2024-03-05T12:32:20.160Z,15.98
2024-03-05T12:34:50.194Z,15.96
2024-03-05T12:37:18.099Z,16.05
2024-03-05T12:39:45.617Z,16.14
2024-03-05T12:42:15.235Z,16.20
2024-03-05T12:44:43.210Z,16.29
2024-03-05T12:47:14.763Z,16.41
2024-03-05T12:49:44.209Z,16.44
2024-03-05T12:52:15.131Z,16.58
2024-03-05T12:54:42.594Z,16.79
2024-03-05T12:57:10.395Z,17.02
2024-03-05T12:59:38.516Z,17.27
2024-03-05T13:02:06.468Z,17.50
2024-03-05T13:04:33.939Z,17.49
2024-03-05T13:07:02.107Z,17.41
2024-03-05T13:09:31.618Z,17.33
2024-03-05T13:11:59.532Z,17.10
2024-03-05T13:14:27.370Z,16.82
2024-03-05T13:16:55.160Z,16.94
2024-03-05T13:19:22.588Z,17.03
2024-03-05T13:21:50.220Z,16.86
2024-03-05T13:24:17.969Z,16.80
2024-03-05T13:26:47.601Z,16.78
2024-03-05T13:29:15.511Z,16.65
2024-03-05T13:31:43.819Z,16.43
2024-03-05T13:34:11.824Z,16.18
2024-03-05T13:36:40.947Z,15.86
2024-03-05T13:39:09.774Z,15.67
2024-03-05T13:41:38.229Z,15.47
2024-03-05T13:44:08.166Z,15.42
2024-03-05T13:46:36.749Z,15.49
2024-03-05T13:49:06.384Z,15.80
2024-03-05T13:51:35.414Z,15.82
2024-03-05T13:54:02.770Z,15.86
2024-03-05T13:56:30.211Z,15.97
2024-03-05T13:58:57.550Z,15.89
2024-03-05T14:01:27.071Z,15.91
2024-03-05T14:03:54.866Z,16.60
2024-03-05T14:06:23.951Z,16.58
2024-03-05T14:08:51.637Z,16.54
2024-03-05T14:11:19.317Z,16.58
2024-03-05T14:13:47.471Z,16.40
2024-03-05T14:16:15.304Z,16.22
2024-03-05T14:18:46.002Z,16.02
2024-03-05T14:21:13.760Z,15.78
2024-03-05T14:23:41.150Z,15.59
2024-03-05T14:26:08.717Z,15.42
2024-03-05T14:28:36.594Z,15.43
2024-03-05T14:31:05.027Z,15.38
2024-03-05T14:33:33.057Z,15.64
2024-03-05T14:36:02.054Z,16.66
2024-03-05T14:38:29.178Z,18.52
2024-03-05T14:40:56.615Z,20.23
2024-03-05T14:43:23.956Z,21.04
2024-03-05T14:45:52.788Z,22.00
2024-03-05T14:48:19.935Z,22.29
2024-03-05T14:50:47.350Z,23.04
2024-03-05T14:53:17.834Z,23.27
2024-03-05T14:55:45.443Z,22.89
2024-03-05T14:58:13.043Z,22.91
2024-03-05T15:00:41.111Z,22.99
2024-03-05T15:03:08.772Z,22.99
2024-03-05T15:05:36.228Z,22.94
2024-03-05T15:08:04.105Z,22.77
2024-03-05T15:10:34.472Z,21.74
2024-03-05T15:13:01.774Z,20.50
2024-03-05T15:15:29.591Z,19.59
2024-03-05T15:17:57.216Z,18.25
2024-03-05T15:20:24.546Z,17.31
2024-03-05T15:22:52.105Z,16.55
2024-03-05T15:25:20.961Z,16.03
2024-03-05T15:28:01.110Z,15.61
2024-03-05T15:30:33.607Z,15.32
2024-03-05T15:33:02.374Z,15.05
2024-03-05T15:35:30.466Z,14.85
2024-03-05T15:37:58.846Z,14.62
2024-03-05T15:40:27.418Z,14.38
2024-03-05T15:42:58.239Z,14.24
2024-03-05T15:45:29.087Z,14.22
2024-03-05T15:47:57.112Z,13.99
2024-03-05T15:50:25.678Z,13.65
2024-03-05T15:52:54.998Z,13.44
2024-03-05T15:55:23.551Z,13.18
2024-03-05T15:57:51.137Z,12.98
2024-03-05T16:00:22.789Z,12.86
2024-03-05T16:02:49.810Z,12.82
2024-03-05T16:05:25.703Z,12.64
2024-03-05T16:08:00.556Z,12.45
2024-03-05T16:10:30.924Z,12.33
2024-03-05T16:13:04.464Z,12.23
2024-03-05T16:15:33.940Z,12.12
2024-03-05T16:18:01.766Z,12.05
2024-03-05T16:20:30.107Z,11.97
2024-03-05T16:22:57.656Z,11.90
2024-03-05T16:25:28.447Z,11.86
2024-03-05T16:27:57.072Z,11.84
2024-03-05T16:30:26.566Z,11.84
2024-03-05T16:32:56.542Z,11.80
2024-03-05T16:35:25.631Z,11.77
2024-03-05T16:37:53.536Z,11.79
2024-03-05T16:40:23.271Z,11.81
2024-03-05T16:42:54.025Z,11.77
2024-03-05T16:45:22.959Z,11.76
2024-03-05T16:47:51.433Z,11.68
2024-03-05T16:50:22.481Z,11.66
2024-03-05T16:52:52.821Z,11.64
2024-03-05T16:55:22.651Z,11.61
2024-03-05T16:57:51.032Z,11.60
2024-03-05T17:00:18.943Z,11.56
2024-03-05T17:02:46.601Z,11.48
2024-03-05T17:05:14.502Z,11.44
2024-03-05T17:07:44.728Z,11.44
2024-03-05T17:10:12.039Z,11.41
2024-03-05T17:12:39.405Z,11.40
2024-03-05T17:15:08.101Z,11.36
2024-03-05T17:17:36.003Z,11.31
2024-03-05T17:20:05.088Z,11.28
2024-03-05T17:22:32.473Z,11.31
2024-03-05T17:25:01.745Z,11.31
2024-03-05T17:27:29.132Z,11.37
2024-03-05T17:29:56.867Z,11.40
2024-03-05T17:32:24.571Z,11.41
2024-03-05T17:34:53.000Z,11.39
2024-03-05T17:37:21.836Z,11.35
2024-03-05T17:39:50.224Z,11.34
2024-03-05T17:42:19.367Z,11.37
2024-03-05T17:44:46.744Z,11.35
2024-03-05T17:47:15.167Z,11.36
2024-03-05T17:49:43.747Z,11.35
2024-03-05T17:52:12.418Z,11.32
2024-03-05T17:54:40.776Z,11.34
2024-03-05T17:57:09.216Z,11.34
2024-03-05T17:59:38.557Z,11.33
2024-03-05T18:02:06.693Z,11.32
2024-03-05T18:04:35.550Z,11.28
2024-03-05T18:07:03.750Z,11.20
2024-03-05T18:09:33.375Z,11.19
2024-03-05T18:12:01.056Z,11.18
2024-03-05T18:14:28.679Z,11.19
2024-03-05T18:16:58.195Z,11.21
2024-03-05T18:19:26.867Z,11.20
2024-03-05T18:21:54.699Z,11.12
2024-03-05T18:24:22.715Z,11.06
2024-03-05T18:26:51.229Z,11.00
2024-03-05T18:29:19.920Z,11.00
2024-03-05T18:31:48.832Z,11.00
2024-03-05T18:34:20.151Z,11.00
2024-03-05T18:36:47.743Z,10.97
2024-03-05T18:39:15.272Z,10.93
2024-03-05T18:41:42.892Z,10.92
2024-03-05T18:44:10.773Z,10.88
2024-03-05T18:46:39.339Z,10.82
2024-03-05T18:49:06.812Z,10.76
2024-03-05T18:51:36.453Z,10.71
2024-03-05T18:54:05.031Z,10.68
2024-03-05T18:56:33.192Z,10.67
2024-03-05T18:59:02.223Z,10.68
2024-03-05T19:01:30.261Z,10.70
2024-03-05T19:04:04.956Z,10.70
2024-03-05T19:06:34.339Z,10.68
2024-03-05T19:09:04.256Z,10.65
2024-03-05T19:11:33.134Z,10.64
2024-03-05T19:14:00.787Z,10.63
2024-03-05T19:16:28.746Z,10.62
2024-03-05T19:18:56.552Z,10.56
2024-03-05T19:21:24.887Z,10.51
2024-03-05T19:23:53.896Z,10.47
2024-03-05T19:26:25.421Z,10.42
2024-03-05T19:28:53.084Z,10.37
2024-03-05T19:31:20.901Z,10.33
2024-03-05T19:33:50.227Z,10.27
2024-03-05T19:36:19.237Z,10.27
2024-03-05T19:38:47.409Z,10.22
2024-03-05T19:41:15.421Z,10.19
2024-03-05T19:43:44.940Z,10.12
2024-03-05T19:46:12.308Z,10.11
2024-03-05T19:48:40.148Z,10.09
2024-03-05T19:51:09.072Z,10.10
2024-03-05T19:53:37.034Z,10.11
2024-03-05T19:56:06.366Z,10.13
2024-03-05T19:58:34.738Z,10.11
2024-03-05T20:01:05.697Z,10.06
2024-03-05T20:03:35.240Z,9.95
2024-03-05T20:06:07.404Z,9.84
2024-03-05T20:08:35.407Z,9.69
2024-03-05T20:11:04.169Z,9.60
2024-03-05T20:13:32.397Z,9.50
2024-03-05T20:16:01.680Z,9.44
2024-03-05T20:18:33.349Z,9.36
2024-03-05T20:21:01.123Z,9.32
2024-03-05T20:23:29.432Z,9.31
2024-03-05T20:25:58.484Z,9.30
2024-03-05T20:28:28.055Z,9.28
2024-03-05T20:30:55.595Z,9.27
2024-03-05T20:33:25.053Z,9.23
2024-03-05T20:35:56.575Z,9.24
2024-03-05T20:38:25.709Z,9.24
2024-03-05T20:40:55.583Z,9.22
2024-03-05T20:43:24.773Z,9.25
2024-03-05T20:45:53.666Z,9.24
2024-03-05T20:48:23.065Z,9.24
2024-03-05T20:50:51.188Z,9.29
2024-03-05T20:53:21.249Z,9.29
2024-03-05T20:55:49.071Z,9.23
2024-03-05T20:58:16.754Z,9.13
2024-03-05T21:00:45.227Z,9.11
2024-03-05T21:03:14.450Z,9.13
2024-03-05T21:05:42.265Z,9.15
2024-03-05T21:08:11.577Z,9.12
2024-03-05T21:10:42.077Z,9.05
2024-03-05T21:13:09.944Z,8.96
2024-03-05T21:15:37.722Z,8.91
2024-03-05T21:18:06.017Z,8.85
2024-03-05T21:20:34.165Z,8.81
2024-03-05T21:23:02.281Z,8.76
2024-03-05T21:25:39.520Z,8.68
2024-03-05T21:28:15.053Z,8.61
2024-03-05T21:30:42.579Z,8.56
2024-03-05T21:33:10.227Z,8.55
2024-03-05T21:35:37.472Z,8.51
2024-03-05T21:38:05.384Z,8.47
2024-03-05T21:40:33.155Z,8.38
2024-03-05T21:43:00.537Z,8.34
2024-03-05T21:45:29.506Z,8.33
2024-03-05T21:47:57.147Z,8.29
2024-03-05T21:50:24.754Z,8.22
2024-03-05T21:52:52.846Z,8.17
2024-03-05T21:55:20.381Z,8.11
2024-03-05T21:57:47.513Z,8.05
2024-03-05T22:00:16.749Z,7.97
2024-03-05T22:02:47.297Z,7.92
2024-03-05T22:05:15.175Z,7.89
2024-03-05T22:07:43.261Z,7.88
2024-03-05T22:10:11.169Z,7.82
2024-03-05T22:12:39.292Z,7.76
2024-03-05T22:15:07.399Z,7.72
2024-03-05T22:17:35.342Z,7.67
2024-03-05T22:20:04.972Z,7.61
2024-03-05T22:22:32.322Z,7.55
2024-03-05T22:25:00.074Z,7.52
2024-03-05T22:27:27.312Z,7.43
2024-03-05T22:29:54.593Z,7.42
2024-03-05T22:32:22.194Z,7.41
2024-03-05T22:34:49.932Z,7.36
2024-03-05T22:37:18.763Z,7.37
2024-03-05T22:39:46.339Z,7.34
2024-03-05T22:42:14.497Z,7.35
2024-03-05T22:44:41.666Z,7.26
2024-03-05T22:47:09.209Z,7.15
2024-03-05T22:49:36.447Z,7.04
2024-03-05T22:52:04.177Z,6.97
2024-03-05T22:54:34.450Z,6.92
2024-03-05T22:57:01.802Z,6.88
2024-03-05T22:59:29.429Z,6.87
2024-03-05T23:01:57.043Z,6.90
2024-03-05T23:04:26.113Z,6.97
2024-03-05T23:06:53.273Z,7.07
2024-03-05T23:09:20.470Z,7.16
2024-03-05T23:11:49.717Z,7.25
2024-03-05T23:14:17.119Z,7.31
2024-03-05T23:16:44.707Z,7.30
2024-03-05T23:19:12.014Z,7.31
2024-03-05T23:21:39.320Z,7.32
2024-03-05T23:24:07.291Z,7.27
2024-03-05T23:26:34.749Z,7.18
2024-03-05T23:29:04.766Z,7.10
2024-03-05T23:31:32.354Z,7.07
2024-03-05T23:33:59.906Z,7.05
2024-03-05T23:36:27.185Z,7.00
2024-03-05T23:38:54.905Z,6.95
2024-03-05T23:41:29.012Z,6.98
2024-03-05T23:43:59.340Z,6.98
2024-03-05T23:46:28.713Z,6.95
2024-03-05T23:48:56.002Z,6.95
2024-03-05T23:51:23.581Z,6.90
2024-03-05T23:53:51.119Z,6.79
2024-03-05T23:56:18.493Z,6.69
2024-03-05T23:58:46.390Z,6.59
